Time;durP1;ratioP1;P1;durP2;ratioP2;P2;SDS_P1;SDS_P2;PMS_P1;PMS_P2;Temp;Humidity;BMP_temperature;BMP_pressure;BME280_temperature;BME280_humidity;BME280_pressure;Samples;Min_cycle;Max_cycle;Signal;HPM_P1;HPM_P2
2023/06/21 00:01:00;;;;;;;5.07;3.28;;;23.10;79.40;;;;;;5029397;28;20038;-61
2023/06/21 00:03:26;;;;;;;4.65;3.20;;;23.10;80.10;;;;;;5031300;28;20036;-62
2023/06/21 00:05:51;;;;;;;2.67;2.13;;;23.10;79.60;;;;;;5029880;28;20033;-61
2023/06/21 00:08:17;;;;;;;4.90;2.83;;;23.10;79.60;;;;;;5030629;28;20401;-61
2023/06/21 00:10:44;;;;;;;3.78;2.90;;;23.10;79.60;;;;;;5031097;28;20388;-62
2023/06/21 00:13:09;;;;;;;3.58;3.03;;;23.10;79.50;;;;;;5031112;28;20033;-60
2023/06/21 00:15:36;;;;;;;3.55;2.50;;;23.10;79.40;;;;;;5026800;28;20075;-60
2023/06/21 00:18:02;;;;;;;4.03;3.03;;;23.00;79.40;;;;;;5031842;28;20083;-61
2023/06/21 00:20:28;;;;;;;3.35;2.50;;;23.00;79.40;;;;;;5011984;28;20404;-61
2023/06/21 00:22:55;;;;;;;5.03;2.35;;;23.00;79.60;;;;;;5031717;28;20029;-61
2023/06/21 00:25:22;;;;;;;3.60;2.60;;;23.00;79.50;;;;;;5026356;28;20025;-62
2023/06/21 00:27:48;;;;;;;2.70;2.25;;;23.00;79.40;;;;;;5029731;28;20033;-61
2023/06/21 00:30:14;;;;;;;2.67;2.22;;;22.90;79.40;;;;;;5016915;28;20048;-61
2023/06/21 00:32:39;;;;;;;3.00;2.55;;;22.90;79.40;;;;;;5030476;28;20219;-61
2023/06/21 00:35:06;;;;;;;4.93;2.65;;;22.80;79.30;;;;;;5028593;28;20057;-62
2023/06/21 00:37:31;;;;;;;4.03;2.22;;;22.70;79.30;;;;;;5031566;28;20099;-61
2023/06/21 00:39:57;;;;;;;3.60;2.40;;;22.70;79.40;;;;;;5029675;28;20033;-60
2023/06/21 00:42:23;;;;;;;2.63;1.67;;;22.70;79.50;;;;;;5029472;28;20033;-61
2023/06/21 00:44:49;;;;;;;2.08;1.42;;;22.60;79.30;;;;;;5027616;28;20108;-61
2023/06/21 00:47:15;;;;;;;2.38;1.80;;;22.60;79.20;;;;;;5008151;28;20029;-61
2023/06/21 00:49:40;;;;;;;2.30;1.70;;;22.60;79.10;;;;;;5029641;28;20025;-60
2023/06/21 00:52:07;;;;;;;2.75;2.13;;;22.60;79.10;;;;;;5029864;28;20026;-60
2023/06/21 00:54:35;;;;;;;2.63;1.45;;;22.50;79.10;;;;;;5030747;28;20083;-60
2023/06/21 00:57:04;;;;;;;2.65;2.05;;;22.50;79.20;;;;;;5025064;28;20401;-60
2023/06/21 00:59:31;;;;;;;1.90;1.73;;;22.50;79.20;;;;;;5011146;28;20111;-62
2023/06/21 01:01:57;;;;;;;2.60;1.80;;;22.50;79.20;;;;;;5007695;28;20029;-62
2023/06/21 01:04:29;;;;;;;2.38;1.60;;;22.40;79.30;;;;;;5011429;28;20065;-61
2023/06/21 01:07:43;;;;;;;2.17;1.65;;;22.40;79.30;;;;;;5025625;28;20048;-61
2023/06/21 01:10:16;;;;;;;1.38;1.27;;;22.40;79.30;;;;;;5028725;28;20021;-61
2023/06/21 01:13:00;;;;;;;2.03;1.58;;;22.30;79.30;;;;;;5030631;28;20075;-60
2023/06/21 01:15:30;;;;;;;2.75;2.30;;;22.30;79.50;;;;;;5029309;28;20415;-60
2023/06/21 01:18:00;;;;;;;2.72;2.08;;;22.10;79.70;;;;;;5026664;28;20021;-60
2023/06/21 01:20:29;;;;;;;2.47;1.77;;;22.10;79.90;;;;;;5027393;28;20041;-60
2023/06/21 01:23:13;;;;;;;2.08;1.50;;;22.10;79.90;;;;;;5029900;28;20104;-61
2023/06/21 01:25:47;;;;;;;3.15;1.80;;;22.10;79.80;;;;;;5020804;28;20083;-62
2023/06/21 01:28:36;;;;;;;7.70;2.17;;;22.10;80.00;;;;;;5029252;28;20029;-60
2023/06/21 01:31:02;;;;;;;2.80;2.15;;;22.00;80.00;;;;;;5028580;28;20025;-60
2023/06/21 01:33:31;;;;;;;5.03;2.15;;;22.00;80.20;;;;;;5029912;28;20405;-62
2023/06/21 01:35:57;;;;;;;1.77;1.35;;;22.00;80.20;;;;;;5010602;28;20532;-62
2023/06/21 01:38:24;;;;;;;3.58;2.00;;;22.00;80.20;;;;;;5024242;28;20049;-62
2023/06/21 01:40:50;;;;;;;3.90;2.33;;;22.00;80.20;;;;;;5028568;28;20041;-61
2023/06/21 01:43:17;;;;;;;3.47;2.28;;;22.00;80.50;;;;;;5029949;28;20045;-61
2023/06/21 01:45:43;;;;;;;3.65;2.55;;;21.90;80.50;;;;;;5028589;28;20025;-62
2023/06/21 01:48:09;;;;;;;4.43;1.83;;;21.90;80.80;;;;;;5029551;28;20037;-62
2023/06/21 01:50:36;;;;;;;3.17;2.10;;;21.90;80.80;;;;;;5028000;28;20481;-62
2023/06/21 01:53:04;;;;;;;4.82;2.30;;;21.90;80.60;;;;;;5008264;28;20018;-60
2023/06/21 01:55:31;;;;;;;2.30;2.10;;;21.90;80.50;;;;;;5028187;28;20084;-60
2023/06/21 01:57:57;;;;;;;4.15;1.95;;;22.00;80.40;;;;;;5029422;28;20047;-62
2023/06/21 02:00:24;;;;;;;2.83;2.03;;;22.00;80.30;;;;;;5010124;28;20026;-62
2023/06/21 02:03:00;;;;;;;3.42;2.33;;;21.90;80.40;;;;;;5029685;28;20031;-62
2023/06/21 02:05:27;;;;;;;4.15;3.10;;;22.00;80.50;;;;;;5024758;28;20053;-62
2023/06/21 02:07:54;;;;;;;3.33;2.20;;;21.80;80.70;;;;;;5028722;28;20029;-62
2023/06/21 02:10:20;;;;;;;2.80;2.17;;;21.90;80.90;;;;;;5027339;28;20056;-61
2023/06/21 02:12:52;;;;;;;3.95;2.70;;;21.90;80.90;;;;;;5011975;28;20033;-61
2023/06/21 02:15:19;;;;;;;3.95;2.92;;;21.90;80.90;;;;;;5027168;28;20030;-60
2023/06/21 02:17:48;;;;;;;4.63;2.75;;;21.80;80.90;;;;;;5029150;28;20036;-60
2023/06/21 02:20:16;;;;;;;3.92;2.40;;;21.80;80.90;;;;;;5027757;28;20057;-60
2023/06/21 02:22:43;;;;;;;4.03;2.60;;;21.80;81.00;;;;;;5025924;28;20456;-60
2023/06/21 02:25:09;;;;;;;6.13;2.75;;;21.80;81.00;;;;;;5025829;28;20056;-61
2023/06/21 02:27:35;;;;;;;4.90;3.83;;;21.90;80.80;;;;;;5028218;28;20065;-61
2023/06/21 02:30:01;;;;;;;5.47;2.55;;;21.90;81.00;;;;;;5027629;28;20523;-60
2023/06/21 02:32:26;;;;;;;5.13;3.10;;;21.80;81.10;;;;;;5026298;28;20084;-60
2023/06/21 02:34:52;;;;;;;4.05;2.92;;;21.80;81.20;;;;;;4991650;28;20034;-60
2023/06/21 02:37:17;;;;;;;5.18;2.95;;;21.80;81.30;;;;;;5011954;28;20087;-60
2023/06/21 02:39:43;;;;;;;6.70;4.07;;;21.80;81.10;;;;;;5010590;28;20087;-60
2023/06/21 02:42:09;;;;;;;6.75;3.78;;;21.80;81.30;;;;;;5011031;28;20095;-60
2023/06/21 02:44:34;;;;;;;4.72;3.15;;;21.70;81.50;;;;;;5028042;28;20041;-60
2023/06/21 02:47:01;;;;;;;5.38;2.83;;;21.70;81.60;;;;;;5010788;28;20045;-62
2023/06/21 02:49:26;;;;;;;8.40;5.07;;;21.70;81.50;;;;;;5011523;28;20107;-61
2023/06/21 02:51:52;;;;;;;6.25;4.18;;;21.70;81.70;;;;;;5025568;28;20384;-61
2023/06/21 02:54:18;;;;;;;4.75;3.55;;;21.60;81.70;;;;;;5028594;28;20040;-61
2023/06/21 02:56:44;;;;;;;5.70;4.18;;;21.60;81.80;;;;;;5025688;28;20057;-61
2023/06/21 02:59:10;;;;;;;12.27;3.67;;;21.60;81.90;;;;;;5027999;28;20042;-62
2023/06/21 03:01:36;;;;;;;10.27;5.72;;;21.60;82.00;;;;;;5028627;28;20424;-60
2023/06/21 03:04:02;;;;;;;8.30;4.25;;;21.60;82.20;;;;;;5028478;28;20025;-61
2023/06/21 03:06:33;;;;;;;8.85;4.10;;;21.60;82.30;;;;;;5026123;28;20033;-62
2023/06/21 03:09:00;;;;;;;7.65;4.82;;;21.60;82.20;;;;;;5027741;28;20468;-61
2023/06/21 03:11:26;;;;;;;9.02;4.97;;;21.60;82.20;;;;;;5028350;28;20034;-62
2023/06/21 03:13:51;;;;;;;7.70;4.10;;;21.60;82.20;;;;;;5007810;28;20415;-61
2023/06/21 03:16:17;;;;;;;11.82;6.28;;;21.60;82.00;;;;;;5023200;28;20029;-60
2023/06/21 03:18:43;;;;;;;12.18;6.45;;;21.60;82.10;;;;;;5012611;28;20128;-60
2023/06/21 03:21:09;;;;;;;8.45;4.60;;;21.60;82.10;;;;;;5031066;28;20064;-62
2023/06/21 03:23:35;;;;;;;8.00;5.35;;;21.50;82.20;;;;;;5031875;28;20033;-61
2023/06/21 03:26:01;;;;;;;9.15;5.28;;;21.50;82.20;;;;;;5014219;28;20496;-61
2023/06/21 03:28:27;;;;;;;9.95;5.97;;;21.50;82.20;;;;;;5030439;28;20042;-60
2023/06/21 03:30:53;;;;;;;10.70;5.43;;;21.50;82.20;;;;;;5025418;28;20025;-60
2023/06/21 03:33:18;;;;;;;8.38;4.97;;;21.50;82.30;;;;;;5014877;28;20033;-61
2023/06/21 03:35:44;;;;;;;9.35;5.75;;;21.60;82.20;;;;;;5026701;28;20048;-60
2023/06/21 03:38:10;;;;;;;10.00;4.88;;;21.50;82.30;;;;;;5031450;28;20171;-60
2023/06/21 03:40:35;;;;;;;9.75;5.53;;;21.50;82.50;;;;;;5030966;28;20025;-60
2023/06/21 03:43:01;;;;;;;8.65;5.72;;;21.50;83.00;;;;;;5030329;28;20033;-60
2023/06/21 03:45:27;;;;;;;8.00;5.03;;;21.40;82.50;;;;;;5011314;28;20037;-60
2023/06/21 03:47:52;;;;;;;6.57;5.10;;;21.50;82.50;;;;;;5013095;28;20037;-60
2023/06/21 03:50:18;;;;;;;8.02;5.00;;;21.50;82.50;;;;;;4995336;28;20049;-60
2023/06/21 03:52:43;;;;;;;9.10;5.68;;;21.50;82.40;;;;;;5030480;28;20433;-61
2023/06/21 03:55:09;;;;;;;10.98;4.88;;;21.50;82.40;;;;;;5030428;28;20053;-60
2023/06/21 03:57:35;;;;;;;11.43;6.45;;;21.50;82.30;;;;;;5031268;28;20029;-61
2023/06/21 04:00:12;;;;;;;7.85;4.38;;;21.50;82.30;;;;;;5031865;28;20036;-62
2023/06/21 04:02:38;;;;;;;7.57;4.97;;;21.50;82.40;;;;;;5028971;28;20068;-61
2023/06/21 04:05:04;;;;;;;6.28;4.25;;;21.60;82.30;;;;;;5029972;28;20061;-62
2023/06/21 04:07:30;;;;;;;6.50;4.65;;;21.60;82.20;;;;;;5028733;28;20108;-62
2023/06/21 04:09:56;;;;;;;6.68;4.10;;;21.60;82.10;;;;;;4997385;28;20489;-60
2023/06/21 04:12:22;;;;;;;7.45;4.78;;;21.60;82.10;;;;;;5011710;28;20040;-60
2023/06/21 04:14:47;;;;;;;8.35;4.95;;;21.70;82.10;;;;;;5031103;28;20476;-60
2023/06/21 04:17:13;;;;;;;6.97;5.10;;;21.60;82.00;;;;;;5011607;28;20037;-61
2023/06/21 04:19:38;;;;;;;10.57;5.55;;;21.70;82.10;;;;;;5030570;28;20048;-61
2023/06/21 04:22:05;;;;;;;9.13;5.45;;;21.70;82.10;;;;;;5030070;28;20033;-62
2023/06/21 04:24:31;;;;;;;9.65;5.25;;;21.60;82.00;;;;;;5029898;28;20029;-61
2023/06/21 04:27:00;;;;;;;7.25;4.47;;;21.70;82.10;;;;;;5028953;28;20068;-61
2023/06/21 04:29:26;;;;;;;8.00;5.80;;;21.70;82.10;;;;;;5009913;28;20407;-61
2023/06/21 04:31:52;;;;;;;8.40;4.85;;;21.70;82.00;;;;;;5010809;28;20048;-61
2023/06/21 04:34:21;;;;;;;7.25;4.40;;;21.80;82.00;;;;;;5030778;28;20057;-61
2023/06/21 04:36:47;;;;;;;9.00;5.03;;;21.80;81.80;;;;;;5026220;28;20028;-61
2023/06/21 04:39:15;;;;;;;7.32;4.57;;;21.70;81.80;;;;;;5011296;28;20033;-60
2023/06/21 04:41:41;;;;;;;11.60;6.35;;;21.70;81.80;;;;;;5030316;28;20474;-60
2023/06/21 04:44:06;;;;;;;12.23;6.82;;;21.70;82.00;;;;;;5030852;28;20072;-60
2023/06/21 04:46:35;;;;;;;10.07;4.75;;;21.70;82.10;;;;;;5028571;28;20444;-60
2023/06/21 04:49:04;;;;;;;9.27;5.03;;;21.70;82.10;;;;;;5027328;28;20087;-61
2023/06/21 04:51:33;;;;;;;14.65;8.25;;;21.70;82.10;;;;;;5011082;28;20053;-62
2023/06/21 04:53:59;;;;;;;10.30;5.68;;;21.60;82.30;;;;;;5012722;28;20029;-62
2023/06/21 04:56:31;;;;;;;10.63;5.88;;;21.50;82.50;;;;;;5029701;28;20049;-61
2023/06/21 04:58:56;;;;;;;12.77;6.20;;;21.60;82.50;;;;;;5028870;28;20037;-60
2023/06/21 05:01:22;;;;;;;9.45;5.40;;;21.60;82.50;;;;;;5029181;28;20120;-60
2023/06/21 05:03:48;;;;;;;9.27;5.22;;;21.60;82.40;;;;;;5029999;28;20032;-60
2023/06/21 05:06:20;;;;;;;10.00;5.18;;;21.70;82.30;;;;;;5009603;28;20072;-60
2023/06/21 05:08:46;;;;;;;9.48;5.50;;;21.80;82.20;;;;;;5026708;28;20481;-60
2023/06/21 05:11:11;;;;;;;8.73;5.00;;;21.80;82.10;;;;;;5029952;28;20034;-61
2023/06/21 05:13:37;;;;;;;10.27;5.03;;;21.80;82.00;;;;;;5029369;28;20104;-62
2023/06/21 05:16:03;;;;;;;8.52;5.43;;;21.80;82.00;;;;;;5030225;28;20029;-61
2023/06/21 05:18:28;;;;;;;11.52;6.68;;;21.80;82.00;;;;;;5011744;28;20029;-60
2023/06/21 05:20:55;;;;;;;7.47;5.32;;;21.80;81.80;;;;;;5028759;28;20477;-63
2023/06/21 05:23:21;;;;;;;10.15;5.07;;;21.80;81.90;;;;;;5027314;28;20041;-61
2023/06/21 05:25:47;;;;;;;10.13;5.18;;;21.80;81.90;;;;;;5029141;28;20028;-60
2023/06/21 05:28:12;;;;;;;12.32;6.53;;;21.80;81.90;;;;;;4994905;28;20041;-61
2023/06/21 05:30:38;;;;;;;11.15;5.82;;;21.80;81.70;;;;;;5029354;28;20052;-60
2023/06/21 05:33:04;;;;;;;13.77;7.80;;;21.80;81.80;;;;;;5028261;28;20026;-61
2023/06/21 05:35:29;;;;;;;12.20;6.40;;;21.80;82.00;;;;;;5026858;28;20079;-61
2023/06/21 05:37:55;;;;;;;9.38;6.15;;;21.70;81.90;;;;;;5029716;28;20037;-61
2023/06/21 05:40:21;;;;;;;11.63;6.95;;;21.70;81.90;;;;;;5010091;28;20048;-61
2023/06/21 05:42:47;;;;;;;11.88;5.97;;;21.80;81.70;;;;;;5027403;28;20033;-59
2023/06/21 05:45:13;;;;;;;13.68;7.07;;;21.90;81.50;;;;;;5010589;28;20033;-59
2023/06/21 05:47:38;;;;;;;15.70;8.95;;;22.00;81.40;;;;;;5010205;28;20052;-59
2023/06/21 05:50:05;;;;;;;11.73;6.65;;;22.00;81.20;;;;;;5028967;28;20040;-59
2023/06/21 05:52:30;;;;;;;10.07;6.85;;;22.00;81.10;;;;;;5029575;28;20025;-59
2023/06/21 05:54:56;;;;;;;9.57;5.88;;;22.00;81.00;;;;;;5025585;28;20540;-59
2023/06/21 05:57:24;;;;;;;9.88;6.60;;;22.10;81.00;;;;;;5030795;28;20041;-59
2023/06/21 05:59:50;;;;;;;11.10;5.57;;;22.20;81.00;;;;;;5027018;28;20045;-59
2023/06/21 06:02:16;;;;;;;9.07;4.85;;;22.30;80.90;;;;;;5028010;28;20099;-59
2023/06/21 06:04:42;;;;;;;11.43;6.65;;;22.40;80.50;;;;;;5008962;28;20024;-59
2023/06/21 06:07:07;;;;;;;9.80;6.60;;;22.50;80.00;;;;;;5029027;28;20037;-59
2023/06/21 06:09:33;;;;;;;13.85;7.47;;;22.50;80.10;;;;;;5027393;28;20365;-59
2023/06/21 06:11:59;;;;;;;10.55;7.00;;;22.40;80.00;;;;;;5026026;28;20026;-59
2023/06/21 06:14:25;;;;;;;8.77;5.97;;;22.40;80.00;;;;;;5009854;28;20415;-59
2023/06/21 06:16:51;;;;;;;13.45;7.78;;;22.50;79.90;;;;;;5023929;28;20056;-59
2023/06/21 06:19:16;;;;;;;13.80;8.10;;;22.50;79.70;;;;;;5028977;28;20075;-59
2023/06/21 06:21:42;;;;;;;12.07;7.63;;;22.60;79.80;;;;;;5027537;28;20064;-64
2023/06/21 06:24:08;;;;;;;10.52;5.47;;;22.50;79.60;;;;;;5010202;28;20021;-63
2023/06/21 06:26:34;;;;;;;11.38;6.38;;;22.50;79.50;;;;;;5028689;28;20097;-58
2023/06/21 06:28:59;;;;;;;10.05;6.93;;;22.60;79.50;;;;;;5026766;28;20144;-59
2023/06/21 06:31:26;;;;;;;11.77;7.53;;;22.60;79.50;;;;;;5021522;28;20141;-59
2023/06/21 06:33:52;;;;;;;10.18;6.05;;;22.60;79.50;;;;;;5012969;28;20029;-58
2023/06/21 06:36:18;;;;;;;10.38;5.25;;;22.60;79.60;;;;;;5028709;28;20048;-58
2023/06/21 06:38:46;;;;;;;7.28;4.07;;;22.70;79.50;;;;;;5025625;28;20029;-59
2023/06/21 06:41:12;;;;;;;12.02;6.70;;;22.80;79.20;;;;;;5028731;28;20033;-58
2023/06/21 06:43:37;;;;;;;8.88;5.22;;;22.90;78.90;;;;;;5027078;28;20026;-59
2023/06/21 06:46:03;;;;;;;8.02;5.25;;;22.90;78.80;;;;;;5010756;28;20040;-59
2023/06/21 06:48:29;;;;;;;12.00;5.13;;;23.00;78.80;;;;;;5011163;28;20405;-58
2023/06/21 06:50:55;;;;;;;9.38;5.63;;;23.10;78.50;;;;;;5026658;28;20033;-59
2023/06/21 06:53:20;;;;;;;10.27;5.40;;;23.20;78.20;;;;;;5030776;28;20037;-59
2023/06/21 06:55:46;;;;;;;6.45;4.15;;;23.30;78.10;;;;;;5014580;28;20120;-60
2023/06/21 06:58:12;;;;;;;6.35;4.05;;;23.40;78.00;;;;;;5014865;28;20041;-61
2023/06/21 07:00:38;;;;;;;7.25;5.03;;;23.40;77.80;;;;;;5029961;28;20421;-63
2023/06/21 07:03:04;;;;;;;8.10;4.95;;;23.40;77.80;;;;;;5031138;28;20455;-58
2023/06/21 07:05:30;;;;;;;10.07;5.57;;;23.40;77.70;;;;;;5028618;28;20040;-58
2023/06/21 07:07:56;;;;;;;7.03;4.95;;;23.40;77.60;;;;;;5028065;28;20083;-62
2023/06/21 07:10:21;;;;;;;11.07;5.93;;;23.50;77.50;;;;;;5027432;28;20021;-61
2023/06/21 07:12:47;;;;;;;9.63;5.80;;;23.50;77.20;;;;;;5032559;28;20029;-61
2023/06/21 07:15:13;;;;;;;9.90;6.22;;;23.50;77.30;;;;;;5030887;28;20057;-62
2023/06/21 07:17:38;;;;;;;9.50;5.65;;;23.60;77.10;;;;;;5033021;28;20433;-62
2023/06/21 07:20:06;;;;;;;10.10;6.85;;;23.60;76.90;;;;;;5027591;28;20041;-61
2023/06/21 07:22:32;;;;;;;9.20;5.82;;;23.70;76.60;;;;;;5027695;28;20435;-62
2023/06/21 07:24:59;;;;;;;9.27;6.28;;;23.60;76.50;;;;;;5013233;28;20067;-60
2023/06/21 07:27:27;;;;;;;9.77;6.40;;;23.50;76.50;;;;;;5014421;28;20033;-59
2023/06/21 07:29:53;;;;;;;10.23;5.78;;;23.60;76.60;;;;;;5012307;28;20030;-57
2023/06/21 07:32:19;;;;;;;13.30;7.90;;;23.60;76.40;;;;;;5031412;28;20034;-57
2023/06/21 07:34:44;;;;;;;11.27;6.53;;;23.70;76.10;;;;;;5030413;28;20021;-57
2023/06/21 07:37:10;;;;;;;12.18;7.28;;;23.70;76.20;;;;;;5031589;28;20243;-58
2023/06/21 07:39:36;;;;;;;13.48;8.70;;;23.70;75.70;;;;;;5030425;28;20025;-67
2023/06/21 07:42:04;;;;;;;10.00;6.82;;;23.70;75.50;;;;;;5029574;28;20037;-66
2023/06/21 07:44:31;;;;;;;13.55;5.70;;;23.60;75.60;;;;;;5014053;28;20045;-71
2023/06/21 07:46:57;;;;;;;10.13;6.10;;;23.50;75.60;;;;;;5013845;28;20028;-57
2023/06/21 07:49:22;;;;;;;9.63;5.43;;;23.60;75.80;;;;;;5031420;28;20033;-56
2023/06/21 07:51:49;;;;;;;12.27;6.80;;;23.60;75.70;;;;;;5029395;28;20120;-65
2023/06/21 07:54:15;;;;;;;12.30;7.43;;;23.60;75.50;;;;;;5012929;28;20482;-65
2023/06/21 07:56:40;;;;;;;10.52;6.13;;;23.60;75.50;;;;;;4997172;28;20053;-65
2023/06/21 07:59:06;;;;;;;12.55;7.68;;;23.70;75.30;;;;;;5029773;28;20105;-65
2023/06/21 08:01:31;;;;;;;12.07;6.72;;;23.80;75.70;;;;;;5031921;28;20033;-65
2023/06/21 08:03:59;;;;;;;14.23;9.70;;;23.90;75.10;;;;;;5027875;28;20057;-65
2023/06/21 08:06:26;;;;;;;13.43;7.30;;;23.90;74.50;;;;;;5030097;28;20033;-55
2023/06/21 08:08:52;;;;;;;11.55;7.03;;;23.80;74.20;;;;;;5030999;28;20419;-55
2023/06/21 08:11:17;;;;;;;9.38;6.55;;;23.70;74.50;;;;;;5030970;28;20036;-56
2023/06/21 08:13:43;;;;;;;11.48;7.13;;;23.90;74.60;;;;;;5029554;28;20033;-55
2023/06/21 08:16:09;;;;;;;11.68;6.78;;;24.00;74.20;;;;;;5012702;28;20117;-64
2023/06/21 08:18:35;;;;;;;11.00;7.45;;;24.00;74.30;;;;;;5031498;28;20029;-63
2023/06/21 08:21:01;;;;;;;10.10;6.82;;;24.00;74.50;;;;;;5030478;28;20018;-63
2023/06/21 08:23:26;;;;;;;11.07;6.95;;;24.00;74.30;;;;;;5029312;28;20042;-63
2023/06/21 08:25:52;;;;;;;12.48;8.48;;;24.10;74.00;;;;;;5030304;28;20750;-62
2023/06/21 08:28:18;;;;;;;9.35;6.05;;;24.30;73.50;;;;;;5030445;28;20396;-62
2023/06/21 08:30:43;;;;;;;14.38;8.18;;;24.40;72.60;;;;;;5029441;28;20388;-61
2023/06/21 08:33:09;;;;;;;10.93;6.50;;;24.50;71.80;;;;;;5031171;28;20440;-56
2023/06/21 08:35:36;;;;;;;9.02;6.30;;;24.60;71.70;;;;;;5026045;28;20026;-56
2023/06/21 08:38:02;;;;;;;8.13;5.40;;;24.80;71.60;;;;;;5030150;28;20507;-64
2023/06/21 08:40:32;;;;;;;8.80;5.95;;;24.90;71.10;;;;;;5029911;28;20116;-58
2023/06/21 08:42:58;;;;;;;10.23;6.57;;;25.10;71.00;;;;;;5030254;28;20041;-57
2023/06/21 08:45:24;;;;;;;7.93;5.32;;;25.10;70.70;;;;;;5023352;28;20591;-57
2023/06/21 08:47:51;;;;;;;9.43;4.88;;;25.00;70.60;;;;;;5024466;28;20112;-57
2023/06/21 08:50:19;;;;;;;8.35;5.18;;;25.00;70.90;;;;;;5010737;28;20393;-57
2023/06/21 08:52:47;;;;;;;9.52;5.82;;;25.10;71.00;;;;;;5029088;28;20188;-64
2023/06/21 08:55:16;;;;;;;9.18;5.72;;;25.20;70.60;;;;;;5028544;28;20033;-64
2023/06/21 08:57:49;;;;;;;8.23;5.05;;;25.10;69.80;;;;;;5026713;28;20033;-64
2023/06/21 09:00:18;;;;;;;8.48;5.75;;;25.00;70.20;;;;;;5022436;28;20029;-64
2023/06/21 09:03:20;;;;;;;7.97;5.25;;;24.80;70.50;;;;;;5025334;28;20109;-64
2023/06/21 09:05:55;;;;;;;5.63;3.90;;;24.80;69.90;;;;;;5025533;28;20033;-64
2023/06/21 09:08:21;;;;;;;8.65;4.90;;;24.80;70.80;;;;;;5025225;28;20392;-58
2023/06/21 09:10:50;;;;;;;6.70;3.70;;;25.00;70.20;;;;;;5027343;28;20029;-58
2023/06/21 09:13:18;;;;;;;6.25;4.25;;;25.20;69.90;;;;;;5022095;28;20112;-58
2023/06/21 09:15:50;;;;;;;6.15;4.20;;;25.40;69.10;;;;;;5021559;28;20160;-58
2023/06/21 09:18:15;;;;;;;4.85;3.70;;;25.60;68.70;;;;;;5006078;28;20052;-64
2023/06/21 09:20:47;;;;;;;6.03;3.60;;;25.60;68.80;;;;;;5022035;28;20250;-58
2023/06/21 09:23:12;;;;;;;4.80;2.95;;;25.70;67.90;;;;;;5025856;28;20033;-64
2023/06/21 09:25:38;;;;;;;4.22;3.45;;;25.80;67.40;;;;;;5028495;28;20056;-57
2023/06/21 09:28:04;;;;;;;5.20;3.40;;;25.90;66.20;;;;;;5028300;28;20060;-58
2023/06/21 09:30:30;;;;;;;4.80;3.38;;;26.00;65.60;;;;;;5028427;28;20519;-58
2023/06/21 09:32:57;;;;;;;4.68;3.47;;;26.00;65.60;;;;;;5027610;28;20516;-61
2023/06/21 09:35:23;;;;;;;4.25;2.65;;;26.00;65.70;;;;;;5027174;28;20520;-61
2023/06/21 09:37:49;;;;;;;4.63;2.90;;;26.10;65.40;;;;;;5025639;28;20034;-65
2023/06/21 09:40:18;;;;;;;3.55;2.95;;;26.10;65.30;;;;;;5024292;28;20043;-61
2023/06/21 09:42:46;;;;;;;6.32;3.50;;;26.00;63.60;;;;;;5009998;28;20025;-61
2023/06/21 09:45:20;;;;;;;3.97;3.58;;;25.90;63.30;;;;;;5026948;28;20037;-61
2023/06/21 09:47:46;;;;;;;3.63;2.70;;;25.90;63.30;;;;;;5026154;28;20046;-61
2023/06/21 09:50:12;;;;;;;2.53;2.25;;;26.00;64.00;;;;;;5026674;28;20060;-62
2023/06/21 09:52:44;;;;;;;3.28;2.60;;;26.10;63.30;;;;;;5026359;28;20071;-61
2023/06/21 09:55:14;;;;;;;2.30;2.10;;;26.30;63.40;;;;;;5022629;28;20043;-63
2023/06/21 09:57:40;;;;;;;2.47;1.90;;;26.50;62.50;;;;;;5029204;28;20042;-62
2023/06/21 10:00:07;;;;;;;1.83;1.60;;;26.50;62.70;;;;;;5028010;28;20388;-64
2023/06/21 10:02:40;;;;;;;6.35;2.42;;;26.70;62.20;;;;;;5029048;28;20063;-64
2023/06/21 10:05:16;;;;;;;1.42;1.33;;;26.80;61.50;;;;;;5025753;28;20170;-59
2023/06/21 10:07:45;;;;;;;1.52;1.20;;;26.80;60.20;;;;;;5009230;28;20389;-58
2023/06/21 10:10:12;;;;;;;1.80;1.40;;;26.80;60.20;;;;;;5022353;28;20469;-64
2023/06/21 10:12:50;;;;;;;1.52;1.25;;;26.80;59.40;;;;;;5027322;28;20091;-58
2023/06/21 10:15:18;;;;;;;1.90;0.85;;;26.90;59.50;;;;;;5025260;28;20025;-64
2023/06/21 10:17:47;;;;;;;1.40;0.98;;;26.90;59.60;;;;;;5022231;28;20397;-59
2023/06/21 10:20:17;;;;;;;1.52;1.15;;;27.10;59.40;;;;;;5010299;28;20038;-58
2023/06/21 10:22:51;;;;;;;2.28;1.63;;;27.10;59.10;;;;;;5027282;28;20036;-64
2023/06/21 10:25:20;;;;;;;2.03;1.23;;;27.20;59.40;;;;;;5023770;28;20127;-57
2023/06/21 10:27:47;;;;;;;1.90;1.38;;;27.30;59.50;;;;;;5011120;28;20079;-57
2023/06/21 10:30:19;;;;;;;3.38;2.03;;;27.20;59.00;;;;;;5030419;28;20036;-57
2023/06/21 10:32:47;;;;;;;1.38;1.15;;;27.10;59.00;;;;;;5031625;28;20029;-57
2023/06/21 10:35:16;;;;;;;2.00;1.30;;;27.20;58.60;;;;;;5009203;28;20033;-57
2023/06/21 10:37:56;;;;;;;6.05;1.95;;;27.20;57.90;;;;;;5031907;28;20073;-58
2023/06/21 10:40:22;;;;;;;1.98;1.20;;;27.20;57.90;;;;;;5031374;28;20028;-58
2023/06/21 10:42:50;;;;;;;1.00;0.93;;;27.30;58.10;;;;;;5031577;28;20049;-58
2023/06/21 10:45:16;;;;;;;1.35;1.15;;;27.50;57.70;;;;;;5029209;28;20431;-58
2023/06/21 10:47:43;;;;;;;1.60;1.23;;;27.70;57.40;;;;;;5027602;28;20358;-58
2023/06/21 10:50:11;;;;;;;2.45;1.15;;;27.90;56.10;;;;;;4991532;28;20097;-64
2023/06/21 10:52:38;;;;;;;1.77;1.08;;;27.90;55.40;;;;;;5033329;28;20108;-63
2023/06/21 10:55:05;;;;;;;3.38;1.55;;;27.90;55.30;;;;;;5028900;28;20029;-63
2023/06/21 10:57:34;;;;;;;1.98;0.77;;;28.10;54.40;;;;;;5031782;28;20503;-63
2023/06/21 11:00:03;;;;;;;2.47;1.20;;;28.10;54.90;;;;;;5032524;28;20025;-63
2023/06/21 11:02:29;;;;;;;1.52;1.23;;;28.20;54.80;;;;;;5030216;28;20064;-63
2023/06/21 11:05:18;;;;;;;1.92;1.30;;;28.30;54.60;;;;;;5031593;28;20484;-63
2023/06/21 11:08:05;;;;;;;1.33;0.90;;;28.30;53.10;;;;;;5030546;28;20112;-63
2023/06/21 11:10:46;;;;;;;1.00;0.90;;;28.40;54.00;;;;;;5030108;28;20025;-64
2023/06/21 11:13:13;;;;;;;0.90;0.88;;;28.50;53.30;;;;;;5030640;28;20101;-63
2023/06/21 11:15:40;;;;;;;1.48;1.35;;;28.60;53.00;;;;;;5014731;28;20072;-63
2023/06/21 11:18:10;;;;;;;1.58;0.80;;;28.80;52.70;;;;;;5024136;28;20120;-63
2023/06/21 11:20:51;;;;;;;1.63;1.38;;;28.90;52.50;;;;;;5028952;28;20025;-64
2023/06/21 11:23:19;;;;;;;1.55;1.40;;;29.00;52.30;;;;;;5029051;28;20481;-63
2023/06/21 11:25:52;;;;;;;1.20;1.10;;;29.20;52.70;;;;;;5027751;28;20025;-64
2023/06/21 11:28:18;;;;;;;2.15;1.33;;;29.30;51.20;;;;;;5029687;28;20476;-64
2023/06/21 11:31:06;;;;;;;2.13;1.00;;;29.20;51.60;;;;;;5031529;28;20017;-64
2023/06/21 11:33:45;;;;;;;1.23;1.13;;;29.40;52.00;;;;;;5028047;28;20063;-58
2023/06/21 11:36:11;;;;;;;1.30;1.17;;;29.50;51.40;;;;;;5031715;28;20041;-58
2023/06/21 11:38:37;;;;;;;1.35;1.25;;;29.60;51.60;;;;;;5029150;28;20397;-58
2023/06/21 11:41:44;;;;;;;2.17;1.70;;;29.80;51.20;;;;;;5007502;28;20167;-58
2023/06/21 11:44:27;;;;;;;2.15;1.52;;;29.80;49.20;;;;;;4950089;29;20036;-58
2023/06/21 11:47:05;;;;;;;3.40;1.10;;;29.60;49.20;;;;;;4949238;29;20063;-58
2023/06/21 11:49:33;;;;;;;2.22;1.17;;;29.60;50.50;;;;;;5005688;28;20124;-64
2023/06/21 11:52:04;;;;;;;1.85;1.40;;;29.60;50.50;;;;;;5012285;28;20067;-63
2023/06/21 11:54:35;;;;;;;1.43;1.10;;;29.70;50.40;;;;;;5027871;28;20492;-63
2023/06/21 11:57:05;;;;;;;1.33;1.02;;;29.80;50.70;;;;;;5011301;28;20049;-63
2023/06/21 11:59:32;;;;;;;1.15;1.08;;;30.10;49.70;;;;;;5029300;28;20032;-65
2023/06/21 12:02:15;;;;;;;1.27;1.10;;;30.20;48.60;;;;;;5027203;28;20034;-65
2023/06/21 12:04:41;;;;;;;1.83;1.55;;;30.10;48.80;;;;;;5029576;28;20381;-63
2023/06/21 12:07:08;;;;;;;1.08;0.98;;;29.90;49.50;;;;;;5029730;28;20067;-64
2023/06/21 12:09:34;;;;;;;0.98;0.90;;;30.00;49.50;;;;;;5030590;28;20388;-64
2023/06/21 12:11:59;;;;;;;2.40;1.10;;;30.10;49.40;;;;;;5029544;28;20022;-64
2023/06/21 12:14:26;;;;;;;0.70;0.70;;;30.20;49.10;;;;;;5028961;28;20033;-64
2023/06/21 12:16:51;;;;;;;4.68;1.10;;;30.40;48.50;;;;;;5029429;28;20042;-58
2023/06/21 12:19:21;;;;;;;1.48;0.70;;;30.40;48.20;;;;;;5030339;28;20037;-63
2023/06/21 12:21:48;;;;;;;3.72;1.17;;;30.40;48.50;;;;;;5029318;28;20446;-63
2023/06/21 12:24:14;;;;;;;2.55;1.50;;;30.40;48.20;;;;;;5029731;28;20053;-64
2023/06/21 12:26:50;;;;;;;0.95;0.77;;;30.40;47.40;;;;;;5027356;28;20044;-64
2023/06/21 12:29:15;;;;;;;0.82;0.60;;;30.40;47.60;;;;;;5009947;28;20037;-64
2023/06/21 12:31:45;;;;;;;1.08;0.90;;;30.50;47.90;;;;;;5029482;28;20025;-64
2023/06/21 12:34:16;;;;;;;1.10;1.00;;;30.60;47.00;;;;;;5030229;28;20029;-64
2023/06/21 12:36:47;;;;;;;0.82;0.70;;;30.50;46.80;;;;;;4987962;28;20089;-58
2023/06/21 12:39:14;;;;;;;1.23;1.08;;;30.40;47.10;;;;;;5027590;28;20037;-58
2023/06/21 12:41:42;;;;;;;0.82;0.75;;;30.40;46.60;;;;;;5028974;28;20030;-64
2023/06/21 12:44:26;;;;;;;1.60;0.90;;;30.50;47.20;;;;;;5028121;28;20400;-58
2023/06/21 12:46:52;;;;;;;0.55;0.50;;;30.70;46.60;;;;;;5027749;28;20408;-64
2023/06/21 12:49:18;;;;;;;1.58;0.80;;;30.90;46.80;;;;;;5028976;28;20039;-64